createdAt,value
2018-02-02T00:01:56.842Z,23.40
2018-02-02T00:04:23.727Z,24.58
2018-02-02T00:06:50.895Z,22.15
2018-02-02T00:09:17.791Z,21.62
2018-02-02T00:11:44.635Z,24.75
2018-02-02T00:14:11.730Z,25.88
2018-02-02T00:16:38.592Z,23.23
2018-02-02T00:19:05.450Z,21.50
2018-02-02T00:21:32.309Z,21.73
2018-02-02T00:23:59.127Z,25.40
2018-02-02T00:26:25.968Z,21.08
2018-02-02T00:28:52.838Z,24.92
2018-02-02T00:31:19.729Z,27.48
2018-02-02T00:33:46.560Z,24.08
2018-02-02T00:36:13.455Z,24.98
2018-02-02T00:38:40.294Z,28.52
2018-02-02T00:41:07.152Z,24.05
2018-02-02T00:43:34.035Z,23.00
2018-02-02T00:46:00.892Z,25.75
2018-02-02T00:48:27.739Z,28.23
2018-02-02T00:50:54.587Z,26.62
2018-02-02T00:53:21.422Z,27.17
2018-02-02T00:55:48.307Z,23.60
2018-02-02T00:58:15.168Z,23.10
2018-02-02T01:00:42.016Z,25.67
2018-02-02T01:03:08.886Z,25.52
2018-02-02T01:05:35.787Z,26.33
2018-02-02T01:08:02.599Z,29.60
2018-02-02T01:10:29.426Z,25.58
2018-02-02T01:12:56.303Z,24.70
2018-02-02T01:15:23.182Z,24.25
2018-02-02T01:17:50.123Z,25.40
2018-02-02T01:20:17.316Z,23.70
2018-02-02T01:22:44.138Z,24.52
2018-02-02T01:25:11.003Z,27.62
2018-02-02T01:27:37.887Z,26.45
2018-02-02T01:30:04.753Z,25.70
2018-02-02T01:32:31.616Z,25.58
2018-02-02T01:34:58.462Z,25.08
2018-02-02T01:37:25.344Z,23.08
2018-02-02T01:39:52.170Z,29.48
2018-02-02T01:42:19.015Z,24.15
2018-02-02T01:44:45.849Z,24.60
2018-02-02T01:47:12.996Z,25.70
2018-02-02T01:49:39.854Z,24.05
2018-02-02T01:52:06.711Z,24.27
2018-02-02T01:54:33.563Z,26.65
2018-02-02T01:57:00.428Z,26.63
2018-02-02T01:59:27.304Z,27.60
2018-02-02T02:01:54.470Z,29.70
2018-02-02T02:04:21.332Z,23.87
2018-02-02T02:06:48.195Z,28.20
2018-02-02T02:09:15.088Z,26.70
2018-02-02T02:11:41.931Z,24.20
2018-02-02T02:14:08.750Z,26.23
2018-02-02T02:16:35.936Z,28.00
2018-02-02T02:19:02.804Z,29.33
2018-02-02T02:21:29.683Z,25.85
2018-02-02T02:23:56.536Z,29.67
2018-02-02T02:26:23.720Z,26.05
2018-02-02T02:28:50.603Z,31.58
2018-02-02T02:31:17.464Z,27.30
2018-02-02T02:33:44.316Z,28.73
2018-02-02T02:36:11.170Z,27.58
2018-02-02T02:38:38.032Z,23.60
2018-02-02T02:41:04.896Z,26.17
2018-02-02T02:43:32.184Z,27.52
2018-02-02T02:45:59.015Z,27.67
2018-02-02T02:48:25.848Z,26.58
2018-02-02T02:50:52.703Z,29.73
2018-02-02T02:55:52.670Z,27.27
2018-02-02T02:58:19.536Z,25.85
2018-02-02T03:00:46.699Z,30.48
2018-02-02T03:03:13.844Z,25.17
2018-02-02T03:05:40.654Z,28.83
2018-02-02T03:08:07.556Z,27.25
2018-02-02T03:10:34.379Z,26.05
2018-02-02T03:13:01.214Z,25.10
2018-02-02T03:15:28.044Z,24.50
2018-02-02T03:17:54.898Z,26.40
2018-02-02T03:20:21.769Z,30.58
2018-02-02T03:22:48.636Z,27.87
2018-02-02T03:25:15.479Z,27.27
2018-02-02T03:27:42.332Z,29.23
2018-02-02T03:30:09.208Z,28.52
2018-02-02T03:32:36.080Z,24.93
2018-02-02T03:35:03.214Z,27.37
2018-02-02T03:37:30.366Z,26.73
2018-02-02T03:39:57.228Z,31.55
2018-02-02T03:42:24.351Z,34.13
2018-02-02T03:44:51.252Z,29.77
2018-02-02T03:47:18.354Z,28.08
2018-02-02T03:49:45.244Z,30.67
2018-02-02T03:52:12.144Z,29.53
2018-02-02T03:54:39.003Z,28.75
2018-02-02T03:57:05.827Z,30.52
2018-02-02T03:59:32.687Z,29.50
2018-02-02T04:01:59.547Z,28.17
2018-02-02T04:04:26.389Z,28.30
2018-02-02T04:06:53.240Z,29.77
2018-02-02T04:09:20.095Z,29.77
2018-02-02T04:11:46.973Z,29.17
2018-02-02T04:14:13.832Z,28.15
2018-02-02T04:16:40.696Z,27.75
2018-02-02T04:19:07.548Z,29.27
2018-02-02T04:21:34.663Z,28.17
2018-02-02T04:24:01.482Z,28.30
2018-02-02T04:26:28.370Z,29.37
2018-02-02T04:28:55.190Z,27.05
2018-02-02T04:31:22.100Z,28.60
2018-02-02T04:33:49.188Z,31.05
2018-02-02T04:36:16.039Z,31.50
2018-02-02T04:38:42.898Z,28.12
2018-02-02T04:41:09.756Z,26.65
2018-02-02T04:43:36.637Z,29.17
2018-02-02T04:46:03.491Z,33.60
2018-02-02T04:48:30.363Z,25.90
2018-02-02T04:50:57.198Z,26.75
2018-02-02T04:53:24.043Z,25.30
2018-02-02T04:55:50.924Z,24.52
2018-02-02T04:58:17.772Z,27.10
2018-02-02T05:00:44.619Z,25.20
2018-02-02T05:03:11.495Z,26.17
2018-02-02T05:05:38.342Z,26.15
2018-02-02T05:08:05.211Z,22.52
2018-02-02T05:10:32.096Z,21.60
2018-02-02T05:12:58.965Z,23.10
2018-02-02T05:15:25.811Z,20.55
2018-02-02T05:17:52.631Z,24.15
2018-02-02T05:20:19.496Z,23.55
2018-02-02T05:22:46.306Z,23.50
2018-02-02T05:25:13.146Z,23.00
2018-02-02T05:27:40.008Z,22.92
2018-02-02T05:30:06.823Z,22.77
2018-02-02T05:32:33.752Z,24.80
2018-02-02T05:35:00.637Z,21.87
2018-02-02T05:37:27.511Z,24.10
2018-02-02T05:39:54.356Z,24.25
2018-02-02T05:42:21.203Z,21.83
2018-02-02T05:44:48.356Z,23.02
2018-02-02T05:47:15.205Z,22.53
2018-02-02T05:49:42.098Z,24.60
2018-02-02T05:52:08.945Z,26.70
2018-02-02T05:54:35.784Z,23.73
2018-02-02T05:57:02.598Z,23.08
2018-02-02T05:59:29.448Z,25.10
2018-02-02T06:01:56.311Z,24.75
2018-02-02T06:04:23.127Z,24.20
2018-02-02T06:06:50.253Z,24.50
2018-02-02T06:09:17.100Z,24.33
2018-02-02T06:11:43.957Z,22.87
2018-02-02T06:14:10.793Z,21.60
2018-02-02T06:16:37.654Z,23.02
2018-02-02T06:19:10.820Z,23.58
2018-02-02T06:21:37.663Z,23.10
2018-02-02T06:24:04.524Z,24.63
2018-02-02T06:26:31.380Z,26.67
2018-02-02T06:28:58.245Z,23.27
2018-02-02T06:31:25.074Z,23.23
2018-02-02T06:33:52.284Z,24.80
2018-02-02T06:36:19.125Z,25.52
2018-02-02T06:38:45.974Z,26.52
2018-02-02T06:41:12.849Z,20.95
2018-02-02T06:43:39.687Z,22.33
2018-02-02T06:46:06.527Z,21.37
2018-02-02T06:48:33.342Z,21.80
2018-02-02T06:51:00.168Z,23.33
2018-02-02T06:53:26.982Z,23.07
2018-02-02T06:55:53.861Z,23.05
2018-02-02T06:58:20.699Z,21.95
2018-02-02T07:00:47.758Z,21.75
2018-02-02T07:03:14.602Z,22.90
2018-02-02T07:05:41.761Z,21.50
2018-02-02T07:08:08.594Z,20.65
2018-02-02T07:10:35.414Z,21.35
2018-02-02T07:13:02.282Z,19.85
2018-02-02T07:15:29.136Z,23.67
2018-02-02T07:17:55.983Z,21.53
2018-02-02T07:20:22.881Z,19.23
2018-02-02T07:22:49.962Z,23.97
2018-02-02T07:25:16.786Z,20.70
2018-02-02T07:27:43.648Z,21.95
2018-02-02T07:30:10.803Z,19.80
2018-02-02T07:32:37.667Z,19.95
2018-02-02T07:35:04.790Z,16.37
2018-02-02T07:37:31.670Z,18.12
2018-02-02T07:39:58.532Z,19.67
2018-02-02T07:42:25.397Z,24.73
2018-02-02T07:44:52.267Z,18.25
2018-02-02T07:47:19.099Z,19.00
2018-02-02T07:49:46.259Z,20.35
2018-02-02T07:52:13.414Z,16.77
2018-02-02T07:54:40.270Z,18.10
2018-02-02T07:57:07.151Z,16.77
2018-02-02T07:59:33.975Z,14.80
2018-02-02T08:02:00.811Z,17.60
2018-02-02T08:04:27.940Z,13.38
2018-02-02T08:06:54.812Z,17.85
2018-02-02T08:09:21.623Z,13.60
2018-02-02T08:11:48.776Z,15.47
2018-02-02T08:14:15.594Z,15.38
2018-02-02T08:16:42.414Z,14.65
2018-02-02T08:19:09.259Z,17.20
2018-02-02T08:21:36.086Z,15.17
2018-02-02T08:24:02.933Z,17.17
2018-02-02T08:26:29.797Z,15.25
2018-02-02T08:28:56.656Z,13.45
2018-02-02T08:31:23.495Z,13.50
2018-02-02T08:33:50.373Z,14.40
2018-02-02T08:36:17.199Z,14.40
2018-02-02T08:38:44.064Z,14.13
2018-02-02T08:41:10.945Z,10.77
2018-02-02T08:43:37.816Z,11.18
2018-02-02T08:46:04.635Z,12.55
2018-02-02T08:48:31.470Z,11.15
2018-02-02T08:50:58.291Z,11.27
2018-02-02T08:53:25.119Z,11.52
2018-02-02T08:55:52.032Z,14.67
2018-02-02T08:58:18.949Z,12.98
2018-02-02T09:00:45.762Z,11.37
2018-02-02T09:03:12.604Z,15.07
2018-02-02T09:05:39.475Z,11.80
2018-02-02T09:08:06.299Z,13.50
2018-02-02T09:10:33.119Z,13.98
2018-02-02T09:12:59.946Z,16.27
2018-02-02T09:15:26.787Z,11.70
2018-02-02T09:17:53.953Z,12.85
2018-02-02T09:20:20.786Z,12.68
2018-02-02T09:22:47.640Z,13.65
2018-02-02T09:25:14.470Z,13.95
2018-02-02T09:27:41.318Z,13.02
2018-02-02T09:30:08.160Z,14.32
2018-02-02T09:32:34.991Z,12.32
2018-02-02T09:35:01.817Z,11.02
2018-02-02T09:37:28.623Z,13.70
2018-02-02T09:39:55.480Z,14.73
2018-02-02T09:42:22.320Z,13.00
2018-02-02T09:44:49.237Z,13.85
2018-02-02T09:47:16.370Z,15.23
2018-02-02T09:49:43.236Z,13.10
2018-02-02T09:52:10.447Z,13.18
2018-02-02T09:54:37.315Z,14.13
2018-02-02T09:57:04.466Z,12.63
2018-02-02T09:59:31.294Z,13.10
2018-02-02T10:01:58.467Z,13.23
2018-02-02T10:04:25.391Z,12.70
2018-02-02T10:06:52.221Z,15.30
2018-02-02T10:09:19.061Z,11.85
2018-02-02T10:11:45.923Z,14.52
2018-02-02T10:14:12.855Z,13.55
2018-02-02T10:16:39.688Z,15.32
2018-02-02T10:19:06.599Z,12.57
2018-02-02T10:21:33.466Z,12.57
2018-02-02T10:24:00.286Z,12.45
2018-02-02T10:26:27.138Z,11.60
2018-02-02T10:28:54.244Z,17.95
2018-02-02T10:31:21.099Z,13.20
2018-02-02T10:33:47.926Z,11.95
2018-02-02T10:36:14.754Z,12.02
2018-02-02T10:38:41.631Z,12.88
2018-02-02T10:41:08.765Z,10.23
2018-02-02T10:43:35.606Z,12.88
2018-02-02T10:46:02.525Z,9.48
2018-02-02T10:48:29.363Z,14.38
2018-02-02T10:50:56.447Z,13.50
2018-02-02T10:53:23.291Z,12.35
2018-02-02T10:55:50.118Z,13.40
2018-02-02T10:58:16.962Z,13.13
2018-02-02T11:00:43.807Z,11.98
2018-02-02T11:03:10.614Z,11.88
2018-02-02T11:05:37.459Z,10.02
2018-02-02T11:08:04.301Z,11.23
2018-02-02T11:10:31.147Z,11.13
2018-02-02T11:12:58.241Z,13.88
2018-02-02T11:15:25.096Z,11.90
2018-02-02T11:17:51.898Z,12.80
2018-02-02T11:20:18.726Z,8.20
2018-02-02T11:22:45.664Z,11.70
2018-02-02T11:25:12.514Z,12.82
2018-02-02T11:27:39.364Z,10.05
2018-02-02T11:30:06.243Z,12.27
2018-02-02T11:32:33.116Z,10.73
2018-02-02T11:34:59.984Z,12.63
2018-02-02T11:37:26.848Z,12.00
2018-02-02T11:39:53.685Z,9.82
2018-02-02T11:42:20.522Z,12.15
2018-02-02T11:44:47.381Z,9.33
2018-02-02T11:47:14.235Z,10.50
2018-02-02T11:49:41.059Z,8.68
2018-02-02T11:52:07.916Z,10.95
2018-02-02T11:54:34.764Z,11.57
2018-02-02T11:57:01.592Z,9.88
2018-02-02T11:59:28.443Z,9.98
2018-02-02T12:01:55.313Z,10.30
2018-02-02T12:04:22.143Z,8.70
2018-02-02T12:06:48.975Z,11.73
2018-02-02T12:09:15.799Z,11.70
2018-02-02T12:11:42.652Z,12.27
2018-02-02T12:14:09.532Z,9.95
2018-02-02T12:16:36.677Z,8.02
2018-02-02T12:19:03.528Z,9.82
2018-02-02T12:21:30.672Z,10.55
2018-02-02T12:23:57.478Z,9.35
2018-02-02T12:26:24.344Z,10.85
2018-02-02T12:28:51.211Z,11.98
2018-02-02T12:31:18.046Z,12.48
2018-02-02T12:33:44.954Z,9.73
2018-02-02T12:36:12.136Z,10.65
2018-02-02T12:38:38.962Z,8.15
2018-02-02T12:41:05.795Z,9.85
2018-02-02T12:43:32.652Z,9.90
2018-02-02T12:45:59.483Z,9.10
2018-02-02T12:48:32.242Z,12.80
2018-02-02T12:51:00.079Z,9.00
2018-02-02T12:53:27.208Z,10.07
2018-02-02T12:55:54.019Z,12.82
2018-02-02T12:58:20.891Z,9.45
2018-02-02T13:00:47.722Z,10.00
2018-02-02T13:03:14.604Z,10.85
2018-02-02T13:05:41.478Z,10.60
2018-02-02T13:08:08.302Z,10.05
2018-02-02T13:10:35.164Z,8.98
2018-02-02T13:13:02.008Z,9.00
2018-02-02T13:15:28.865Z,9.75
2018-02-02T13:17:55.716Z,9.90
2018-02-02T13:20:22.530Z,9.80
2018-02-02T13:22:49.380Z,9.85
2018-02-02T13:25:16.178Z,9.23
2018-02-02T13:27:43.037Z,8.67
2018-02-02T13:30:09.875Z,8.47
2018-02-02T13:32:37.108Z,15.38
2018-02-02T13:35:03.952Z,11.43
2018-02-02T13:37:30.778Z,13.82
2018-02-02T13:39:57.580Z,9.00
2018-02-02T13:42:24.405Z,15.45
2018-02-02T13:44:51.218Z,11.43
2018-02-02T13:47:18.088Z,13.27
2018-02-02T13:49:44.910Z,11.02
2018-02-02T13:52:11.742Z,12.43
2018-02-02T13:54:38.628Z,12.20
2018-02-02T13:57:05.475Z,11.05
2018-02-02T13:59:32.302Z,11.20
2018-02-02T14:01:59.160Z,9.27
2018-02-02T14:04:26.048Z,11.32
2018-02-02T14:06:52.899Z,10.50
2018-02-02T14:09:19.740Z,11.00
2018-02-02T14:11:46.634Z,11.17
2018-02-02T14:14:13.483Z,11.10
2018-02-02T14:16:40.299Z,10.77
2018-02-02T14:19:07.148Z,15.60
2018-02-02T14:21:34.012Z,14.63
2018-02-02T14:24:00.852Z,12.13
2018-02-02T14:26:27.704Z,12.68
2018-02-02T14:28:54.572Z,11.90
2018-02-02T14:31:21.415Z,12.27
2018-02-02T14:33:48.597Z,15.05
2018-02-02T14:36:15.448Z,12.55
2018-02-02T14:38:42.282Z,13.60
2018-02-02T14:41:09.144Z,13.77
2018-02-02T14:43:35.978Z,15.20
2018-02-02T14:46:02.860Z,18.10
2018-02-02T14:48:29.698Z,15.65
2018-02-02T14:50:56.551Z,15.63
2018-02-02T14:53:23.433Z,16.48
2018-02-02T14:55:50.285Z,22.08
2018-02-02T14:58:17.158Z,26.15
2018-02-02T15:00:44.005Z,14.30
2018-02-02T15:03:10.829Z,16.93
2018-02-02T15:05:37.642Z,15.20
2018-02-02T15:08:04.515Z,17.65
2018-02-02T15:10:31.380Z,15.07
2018-02-02T15:12:58.292Z,16.10
2018-02-02T15:15:25.439Z,16.00
2018-02-02T15:17:52.300Z,45.12
2018-02-02T15:20:19.159Z,16.90
2018-02-02T15:22:45.995Z,19.42
2018-02-02T15:25:12.818Z,16.58
2018-02-02T15:27:39.650Z,17.85
2018-02-02T15:30:06.523Z,17.30
2018-02-02T15:32:33.440Z,17.90
2018-02-02T15:35:00.262Z,15.15
2018-02-02T15:37:27.138Z,18.45
2018-02-02T15:39:54.029Z,16.45
2018-02-02T15:42:20.926Z,17.65
2018-02-02T15:44:47.755Z,19.20
2018-02-02T15:47:14.603Z,20.83
2018-02-02T15:49:41.452Z,17.33
2018-02-02T15:52:08.301Z,19.50
2018-02-02T15:54:35.200Z,18.00
2018-02-02T15:57:02.309Z,16.47
2018-02-02T15:59:29.164Z,18.40
2018-02-02T16:01:56.020Z,16.48
2018-02-02T16:04:22.915Z,20.00
2018-02-02T16:06:49.719Z,16.98
2018-02-02T16:09:16.604Z,18.50
2018-02-02T16:11:43.652Z,18.60
2018-02-02T16:14:10.523Z,18.00
2018-02-02T16:16:37.355Z,17.90
2018-02-02T16:19:04.212Z,17.25
2018-02-02T16:21:31.046Z,17.90
2018-02-02T16:23:58.181Z,17.70
2018-02-02T16:26:25.019Z,18.80
2018-02-02T16:28:51.830Z,19.48
2018-02-02T16:31:18.658Z,19.63
2018-02-02T16:33:45.492Z,21.25
2018-02-02T16:36:12.302Z,19.08
2018-02-02T16:38:39.179Z,20.60
2018-02-02T16:41:06.020Z,19.87
2018-02-02T16:43:32.896Z,19.92
2018-02-02T16:45:59.739Z,19.83
2018-02-02T16:48:26.604Z,22.23
2018-02-02T16:50:53.468Z,20.48
2018-02-02T16:53:20.339Z,23.80
2018-02-02T16:55:47.214Z,23.12
2018-02-02T16:58:14.042Z,27.92
2018-02-02T17:00:40.916Z,23.42
2018-02-02T17:03:08.076Z,23.25
2018-02-02T17:05:35.228Z,22.80
2018-02-02T17:08:02.068Z,22.20
2018-02-02T17:10:28.939Z,23.40
2018-02-02T17:12:55.758Z,24.60
2018-02-02T17:15:22.590Z,23.48
2018-02-02T17:17:49.460Z,22.90
2018-02-02T17:20:16.289Z,26.67
2018-02-02T17:22:43.144Z,25.50
2018-02-02T17:25:10.001Z,25.05
2018-02-02T17:27:36.872Z,26.98
2018-02-02T17:30:03.728Z,29.30
2018-02-02T17:32:30.588Z,29.60
2018-02-02T17:34:57.520Z,29.50
2018-02-02T17:37:24.326Z,28.23
2018-02-02T17:39:51.192Z,29.97
2018-02-02T17:42:18.020Z,29.20
2018-02-02T17:44:44.880Z,30.30
2018-02-02T17:47:11.710Z,30.77
2018-02-02T17:49:38.679Z,30.17
2018-02-02T17:52:05.495Z,27.90
2018-02-02T17:54:32.603Z,30.55
2018-02-02T17:56:59.477Z,33.33
2018-02-02T17:59:26.294Z,33.13
2018-02-02T18:01:53.127Z,31.87
2018-02-02T18:04:19.988Z,30.75
2018-02-02T18:06:46.863Z,29.45
2018-02-02T18:09:13.701Z,30.73
2018-02-02T18:11:40.548Z,31.17
2018-02-02T18:14:07.407Z,27.27
2018-02-02T18:16:34.272Z,25.60
2018-02-02T18:19:01.135Z,24.70
2018-02-02T18:21:27.979Z,39.13
2018-02-02T18:23:55.132Z,39.08
2018-02-02T18:26:22.028Z,32.65
2018-02-02T18:28:48.870Z,37.28
2018-02-02T18:31:15.706Z,48.38
2018-02-02T18:33:42.542Z,30.73
2018-02-02T18:36:09.416Z,27.05
2018-02-02T18:38:36.232Z,26.02
2018-02-02T18:41:03.078Z,26.92
2018-02-02T18:43:29.936Z,24.73
2018-02-02T18:45:56.763Z,23.27
2018-02-02T18:48:23.628Z,22.57
2018-02-02T18:50:50.502Z,23.83
2018-02-02T18:53:17.338Z,22.67
2018-02-02T18:55:44.171Z,21.45
2018-02-02T18:58:11.042Z,22.17
2018-02-02T19:00:37.875Z,30.95
2018-02-02T19:03:04.704Z,23.33
2018-02-02T19:05:31.542Z,23.55
2018-02-02T19:07:58.382Z,23.02
2018-02-02T19:10:25.563Z,23.35
2018-02-02T19:12:52.415Z,26.50
2018-02-02T19:15:19.255Z,24.05
2018-02-02T19:17:46.090Z,28.60
2018-02-02T19:20:13.260Z,26.20
2018-02-02T19:22:40.094Z,23.52
2018-02-02T19:25:06.933Z,24.58
2018-02-02T19:27:33.777Z,23.65
2018-02-02T19:30:00.632Z,24.48
2018-02-02T19:32:27.759Z,24.42
2018-02-02T19:34:54.593Z,30.17
2018-02-02T19:37:21.584Z,29.35
2018-02-02T19:39:48.699Z,32.72
2018-02-02T19:42:15.542Z,32.50
2018-02-02T19:44:42.359Z,30.85
2018-02-02T19:47:09.208Z,30.15
2018-02-02T19:49:36.071Z,30.02
2018-02-02T19:52:02.890Z,30.55
2018-02-02T19:54:29.756Z,31.00
2018-02-02T19:56:56.586Z,29.60
2018-02-02T19:59:23.435Z,30.95
2018-02-02T20:01:50.306Z,35.35
2018-02-02T20:04:17.164Z,33.85
2018-02-02T20:06:44.003Z,29.75
2018-02-02T20:09:10.827Z,30.80
2018-02-02T20:11:37.660Z,38.58
2018-02-02T20:14:04.548Z,37.50
2018-02-02T20:16:31.378Z,35.78
2018-02-02T20:18:58.499Z,37.60
2018-02-02T20:21:25.367Z,33.45
2018-02-02T20:23:52.216Z,38.22
2018-02-02T20:26:19.052Z,37.58
2018-02-02T20:28:45.911Z,40.45
2018-02-02T20:31:12.800Z,40.58
2018-02-02T20:33:39.648Z,36.50
2018-02-02T20:36:06.576Z,36.63
2018-02-02T20:38:33.420Z,34.13
2018-02-02T20:41:00.274Z,34.63
2018-02-02T20:43:27.094Z,38.70
2018-02-02T20:45:53.978Z,38.20
2018-02-02T20:48:20.854Z,35.08
2018-02-02T20:50:47.706Z,37.72
2018-02-02T20:53:14.564Z,35.70
2018-02-02T20:55:41.378Z,31.52
2018-02-02T20:58:08.268Z,34.78
2018-02-02T21:00:35.091Z,43.70
2018-02-02T21:03:01.944Z,81.15
2018-02-02T21:05:28.808Z,80.60
2018-02-02T21:07:55.638Z,71.65
2018-02-02T21:10:22.507Z,59.90
2018-02-02T21:12:49.333Z,39.67
2018-02-02T21:15:16.398Z,36.22
2018-02-02T21:17:43.547Z,38.03
2018-02-02T21:20:10.417Z,36.80
2018-02-02T21:22:37.250Z,38.03
2018-02-02T21:25:04.076Z,34.38
2018-02-02T21:27:30.938Z,33.53
2018-02-02T21:29:57.778Z,32.30
2018-02-02T21:32:24.607Z,29.08
2018-02-02T21:34:51.475Z,28.90
2018-02-02T21:37:18.300Z,29.33
2018-02-02T21:39:45.142Z,35.03
2018-02-02T21:42:11.990Z,38.92
2018-02-02T21:44:38.827Z,42.47
2018-02-02T21:47:05.728Z,39.17
2018-02-02T21:49:32.542Z,42.97
2018-02-02T21:51:59.663Z,40.50
2018-02-02T21:54:26.486Z,43.65
2018-02-02T21:56:53.402Z,41.37
2018-02-02T21:59:20.251Z,55.53
2018-02-02T22:01:47.107Z,46.63
2018-02-02T22:04:13.984Z,59.88
2018-02-02T22:06:40.823Z,57.85
2018-02-02T22:09:07.680Z,72.40
2018-02-02T22:11:34.576Z,71.03
2018-02-02T22:14:01.414Z,60.67
2018-02-02T22:16:28.259Z,50.12
2018-02-02T22:18:55.098Z,42.03
2018-02-02T22:21:21.947Z,38.13
2018-02-02T22:23:48.828Z,35.37
2018-02-02T22:26:15.691Z,37.42
2018-02-02T22:28:42.852Z,37.40
2018-02-02T22:31:09.772Z,44.83
2018-02-02T22:33:36.623Z,44.97
2018-02-02T22:36:03.758Z,54.00
2018-02-02T22:38:30.915Z,49.42
2018-02-02T22:40:57.816Z,46.72
2018-02-02T22:43:25.012Z,39.53
2018-02-02T22:45:51.868Z,38.75
2018-02-02T22:48:18.735Z,37.47
2018-02-02T22:50:45.585Z,43.85
2018-02-02T22:53:12.452Z,35.72
2018-02-02T22:55:39.302Z,33.88
2018-02-02T22:58:06.160Z,33.83
2018-02-02T23:00:33.035Z,37.08
2018-02-02T23:03:00.163Z,33.60
2018-02-02T23:05:27.019Z,46.95
2018-02-02T23:07:54.272Z,47.65
2018-02-02T23:10:21.091Z,60.30
2018-02-02T23:12:47.964Z,57.55
2018-02-02T23:15:15.000Z,58.17
2018-02-02T23:17:41.846Z,49.15
2018-02-02T23:20:08.708Z,48.53
2018-02-02T23:22:35.616Z,42.47
2018-02-02T23:25:02.458Z,56.83
2018-02-02T23:27:29.338Z,46.37
2018-02-02T23:29:56.196Z,81.87
2018-02-02T23:32:23.019Z,57.70
2018-02-02T23:34:49.866Z,51.97
2018-02-02T23:37:16.772Z,49.20
2018-02-02T23:39:43.667Z,43.08
2018-02-02T23:42:10.533Z,44.25
2018-02-02T23:44:37.402Z,40.53
2018-02-02T23:47:04.573Z,56.22
2018-02-02T23:49:31.422Z,48.80
2018-02-02T23:51:58.301Z,50.10
2018-02-02T23:54:25.216Z,50.33
2018-02-02T23:56:52.203Z,48.05
2018-02-02T23:59:19.073Z,50.88
